Badger Spring Valley, Nevada Weather observations

Data are for 10 minute period ending at time listed.
 Day   Time   Solar   Ave.   Ave.  Ave.  Vector  Max.   Baro.   Total    
  of    of     Rad.   Air    Rel.  Wind   Wind   Wind  Press.  Precip.   
Year   Day            Temp.  Hum.  Speed  Dir.   Gust                    
2015   (PST)  Kw/m2    F      %     mph   deg.    mph    mb.     in.     
-------------------------------------------------------------------------
 179   15:20   0.75   93.3    12    5.7   174    10.4   832.1    0.00 
 179   15:30   0.78   93.8    12    2.4   357     7.7   832.0    0.00 
 179   15:40   0.77   94.7    12    9.5   152    16.1   832.0    0.00 
 179   15:50   0.71   93.6    12    4.7   120    13.2   832.0    0.00 
 179   16:00   0.66   95.1    11    7.0   174    18.1   831.9    0.00 
 179   16:10   0.56   94.7    11    8.5   170    17.3   831.9    0.00 
 179   16:20   0.55   94.5    12    5.8   174    16.3   831.9    0.00 
 179   16:30   0.39   94.1    12    9.0   162    15.9   831.8    0.00 
 179   16:40   0.31   93.6    12    5.4   154    11.3   831.6    0.00 
 179   16:50   0.40   93.6    12    9.6   165    14.5   831.5    0.00 
 179   17:00   0.40   93.4    12    7.9   186    12.3   831.4    0.00 
 179   17:10   0.26   93.1    12    5.8   191     8.9   831.4    0.00 
 179   17:20   0.22   92.9    12    5.1   196     8.3   831.4    0.00 
 179   17:30   0.15   91.8    13    8.7   185    14.4   831.4    0.00 
 179   17:40   0.16   91.3    13   10.7   188    15.2   831.5    0.00 
 179   17:50   0.11   90.8    13    5.5   199     9.6   831.6    0.00 
 179   18:00   0.10   90.5    13    7.9   180    18.5   831.6    0.00 
 179   18:10   0.09   90.2    14    8.4   212    14.0   831.8    0.00 
 179   18:20   0.07   89.7    14    7.1   240    11.1   832.0    0.00 
 179   18:30   0.05   89.0    14    5.8   229    13.2   832.1    0.00 
 179   18:40   0.03   88.2    15   10.2   242    16.0   832.2    0.00 
 179   18:50   0.02   87.1    16   13.3   244    18.3   832.3    0.00 
 179   19:00   0.01   86.2    18   13.0   247    20.1   832.5    0.00 
 179   19:10   0.00   85.8    18   13.2   259    17.9   832.5    0.00 
 179   19:20   0.00   85.4    18   11.6   257    17.1   832.5    0.00 
 179   19:30   0.00   84.6    19    9.0   259    13.4   832.6    0.00 
 179   19:40   0.00   84.4    19   12.6   262    18.3   832.6    0.00 
 179   19:50   0.00   84.3    19   11.3   257    16.0   832.7    0.00 
 179   20:00   0.00   84.0    20   10.7   261    15.7   832.9    0.00 
 179   20:10   0.00   83.9    20   11.0   262    16.0   832.9    0.00 
 179   20:20   0.00   83.9    20   11.1   265    17.3   833.0    0.00 
 179   20:30   0.00   83.7    20   10.4   258    16.0   833.1    0.00 
 179   20:40   0.00   83.7    20   11.8   265    18.0   833.1    0.00 
 179   20:50   0.00   83.7    20   12.2   261    17.7   833.2    0.00 
 179   21:00   0.00   83.3    20   12.4   252    17.9   833.3    0.00 
 179   21:10   0.00   82.9    20   11.4   261    15.8   833.4    0.00 
 179   21:20   0.00   82.8    21   10.8   260    15.0   833.4    0.00 
 179   21:30   0.00   82.4    21   10.2   261    14.0   833.5    0.00 
 179   21:40   0.00   82.3    21   10.3   260    14.9   833.5    0.00 
 179   21:50   0.00   82.1    22   10.9   254    15.4   833.6    0.00 
 179   22:00   0.00   81.8    22   12.4   250    20.2   833.6    0.00 
 179   22:10   0.00   81.5    23   13.2   254    20.5   833.6    0.00 
 179   22:20   0.00   81.2    23   13.3   254    18.4   833.7    0.00 
 179   22:30   0.00   80.9    24   12.6   260    20.5   833.7    0.00 
 179   22:40   0.00   80.7    24   13.0   261    17.0   833.6    0.00 
 179   22:50   0.00   80.6    24   12.1   260    17.8   833.6    0.00 
 179   23:00   0.00   80.6    24   12.1   260    19.2   833.5    0.00 
 179   23:10   0.00   80.5    24   10.7   267    15.0   833.5    0.00 
 179   23:20   0.00   80.7    24    9.5   274    15.2   833.5    0.00 
 179   23:30   0.00   80.6    24    7.4   273    10.7   833.5    0.00 
 179   23:40   0.00   80.7    24    8.9   275    14.2   833.5    0.00 
 179   23:50   0.00   80.7    24   10.2   272    15.2   833.5    0.00 
 180    0:00   0.00   80.5    25   10.5   267    17.5   833.4    0.00 
 180    0:10   0.00   80.4    25   10.5   275    15.1   833.4    0.00 
 180    0:20   0.00   80.2    25   10.1   278    15.0   833.4    0.00 
 180    0:30   0.00   80.0    25    8.8   280    14.3   833.3    0.00 
 180    0:40   0.00   79.8    25    9.1   282    14.5   833.3    0.00 
 180    0:50   0.00   79.7    25    8.6   287    15.1   833.4    0.00 
 180    1:00   0.00   79.2    26    5.6   304     8.6   833.5    0.00 
 180    1:10   0.00   78.9    26    7.2   278    11.5   833.4    0.00 
 180    1:20   0.00   78.5    26    8.5   281    12.0   833.4    0.00 
 180    1:30   0.00   78.4    26    8.1   285    10.7   833.5    0.00 
 180    1:40   0.00   78.0    27    7.3   303     9.7   833.5    0.00 
 180    1:50   0.00   77.6    27    5.2   294     7.0   833.5    0.00 
 180    2:00   0.00   77.4    27    6.9   298     8.8   833.6    0.00 
 180    2:10   0.00   76.2    28    8.0   302     9.4   833.7    0.00 
 180    2:20   100.00  99999.0   99999  99999.0   99999   99999.0   99999.0   99999.00 
 180    2:30   100.00  99999.0   99999  99999.0   99999   99999.0   99999.0   99999.00 
 180    2:40   100.00  99999.0   99999  99999.0   99999   99999.0   99999.0   99999.00 
 180    2:50   100.00  99999.0   99999  99999.0   99999   99999.0   99999.0   99999.00 
 180    3:00   100.00  99999.0   99999  99999.0   99999   99999.0   99999.0   99999.00 
 180    3:10   100.00  99999.0   99999  99999.0   99999   99999.0   99999.0   99999.00 
 180    3:20   0.00   75.9    29    9.4   305    11.5   833.6    0.00 
 180    3:30   0.00   77.1    28   10.5   291    14.2   833.7    0.00 
 180    3:40   0.00   77.7    27   10.1   296    13.2   833.8    0.00 
 180    3:50   0.00   77.5    27    9.8   294    13.6   833.8    0.00 
 180    4:00   0.00   77.1    28    7.5   287    10.7   833.8    0.00 
 180    4:10   0.00   76.2    28    4.6   288     7.9   833.9    0.00 
 180    4:20   0.00   74.5    30    5.3   317     7.3   834.0    0.00 
 180    4:30   0.01   74.0    30    1.9   307     3.7   834.0    0.00 
 180    4:40   0.01   74.3    30    2.6   254     5.0   834.1    0.00 
 180    4:50   0.02   73.9    30    1.7   308     3.7   834.2    0.00 
 180    5:00   0.06   75.9    28    3.0   320     5.0   834.3    0.00 
 180    5:10   0.08   76.5    28    1.7   299     2.9   834.5    0.00 
 180    5:20   0.11   78.7    26    3.4   269     6.0   834.6    0.00 
 180    5:30   0.14   79.9    25    2.7   304     5.0   834.7    0.00 
 180    5:40   0.17   80.9    24    3.4   280     5.6   834.7    0.00 
 180    5:50   0.20   81.9    24    4.1   311     6.2   834.7    0.00 
 180    6:00   0.23   82.4    23    5.3   310     8.6   834.6    0.00 
 180    6:10   0.27   83.1    22    5.0   306     8.5   834.6    0.00 
 180    6:20   0.30   83.8    22    4.5   303     7.5   834.5    0.00 
 180    6:30   0.34   84.7    21    4.0   330     6.9   834.4    0.00 
 180    6:40   0.38   85.6    20    3.8    44     6.9   834.5    0.00 
 180    6:50   0.41   84.7    21    4.5    98     7.2   834.5    0.00 
 180    7:00   0.45   84.9    21    4.5   112     7.5   834.5    0.00 
 180    7:10   0.49   85.7    20    3.6   132     6.6   834.5    0.00 
 180    7:20   0.52   86.0    20    3.6   103     6.8   834.4    0.00 
 180    7:30   0.55   87.0    20    3.3    45     7.7   834.3    0.00 
 180    7:40   0.59   87.0    19    4.0   270     7.5   834.2    0.00 
 180    7:50   0.63   88.9    17    2.6   230     5.5   834.3    0.00 
 180    8:00   0.66   88.6    18    5.3   256    10.4   834.3    0.00 
 180    8:10   0.69   88.0    18    7.2   238    12.0   834.3    0.00 
 180    8:20   0.73   87.7    18    7.5   247    12.3   834.3    0.00 
 180    8:30   0.76   87.8    18    7.6   247    14.5   834.3    0.00 
 180    8:40   0.79   88.2    18    7.4   240    11.6   834.3    0.00 
 180    8:50   0.82   88.5    18    7.0   252    12.5   834.3    0.00 
 180    9:00   0.85   89.3    17    5.9   245    12.9   834.3    0.00 
 180    9:10   0.80   89.6    16    7.7   200    12.9   834.3    0.00 
 180    9:20   0.90   90.2    16    7.0   205    13.7   834.3    0.00 
 180    9:30   0.93   90.4    16    6.8   228    11.7   834.3    0.00 
 180    9:40   0.97   90.6    16    7.9   201    11.8   834.3    0.00 
 180    9:50   0.98   91.2    15    8.6   188    13.8   834.4    0.00 
 180   10:00   1.00   91.2    16    6.4   220    12.3   834.4    0.00 
 180   10:10   1.01   91.7    15    7.2   191    12.9   834.3    0.00 
 180   10:20   1.03   91.5    16    6.8   221    12.4   834.3    0.00 
 180   10:30   1.04   91.7    16    6.0   191    13.8   834.4    0.00 
 180   10:40   1.06   91.8    16    8.2   209    15.9   834.3    0.00 
 180   10:50   1.07   91.5    16    9.3   222    19.7   834.3    0.00 
 180   11:00   1.07   91.9    15    7.2   194    15.9   834.2    0.00 
 180   11:10   1.07   93.3    15   10.2   202    17.2   834.2    0.00 
 180   11:20   1.11   93.0    15    7.5   203    14.6   834.2    0.00 
 180   11:30   1.11   93.8    15   10.1   186    16.8   834.1    0.00 
 180   11:40   1.12   93.4    15    8.2   167    13.4   834.1    0.00 
 180   11:50   1.10   93.1    15    6.1   167    14.2   833.9    0.00 
 180   12:00   1.11   92.2    15    3.6   188    10.0   833.9    0.00 
 180   12:10   1.11   94.0    15    9.5   194    16.4   833.8    0.00 
 180   12:20   1.07   93.5    15    5.2   156    13.7   833.8    0.00 
 180   12:30   1.11   94.6    14    8.9   206    17.6   833.7    0.00 
 180   12:40   0.82   94.5    14    8.8   211    14.5   833.7    0.00 
 180   12:50   1.08   92.6    15    3.3   143     8.0   833.6    0.00 
 180   13:00   0.82   95.1    14    8.7   167    16.5   833.5    0.00 
 180   13:10   1.11   95.0    14   10.6   147    22.4   833.5    0.00 
 180   13:20   0.97   94.5    14    8.3   132    16.8   833.5    0.00 
 180   13:30   0.84   93.9    14    4.6   108    12.1   833.5    0.00 
 180   13:40   1.07   95.0    14   10.1   171    18.6   833.4    0.00 
 180   13:50   1.01   94.9    14    8.8   215    18.5   833.3    0.00 
 180   14:00   0.97   95.3    14    9.5   206    15.7   833.3    0.00 
 180   14:10   0.91   94.7    14    5.9   217    12.1   833.2    0.00 
 180   14:20   0.71   94.3    14    7.5   150    15.1   833.0    0.00 
 180   14:30   0.88   94.0    14    7.6   116    16.2   832.9    0.00 
 180   14:40   0.89   95.2    14    5.9   177    13.1   832.8    0.00 
 180   14:50   0.84   95.7    13    5.7   211    15.9   832.6    0.00 
 180   15:00   0.82   95.3    13   10.7   219    19.7   832.6    0.00 
 180   15:10   0.80   95.4    14    7.2   216    15.0   832.5    0.00 

Return to Badger Spring Valley graphs page.


Western Regional Climate Center,wrcc@dri.edu